createdAt,value
2019-06-15T00:01:55.253Z,19.40
2019-06-15T00:04:27.236Z,19.26
2019-06-15T00:06:59.194Z,19.34
2019-06-15T00:09:31.168Z,19.35
2019-06-15T00:12:03.134Z,19.40
2019-06-15T00:14:35.125Z,19.45
2019-06-15T00:17:07.087Z,19.64
2019-06-15T00:19:39.065Z,19.74
2019-06-15T00:22:11.008Z,19.63
2019-06-15T00:24:42.976Z,19.74
2019-06-15T00:27:15.010Z,19.68
2019-06-15T00:29:46.967Z,19.67
2019-06-15T00:32:18.942Z,19.68
2019-06-15T00:34:50.933Z,19.74
2019-06-15T00:37:22.912Z,19.77
2019-06-15T00:39:54.891Z,19.74
2019-06-15T00:42:26.851Z,19.73
2019-06-15T00:44:58.831Z,19.73
2019-06-15T00:47:30.776Z,19.72
2019-06-15T00:50:03.070Z,19.71
2019-06-15T00:52:35.084Z,19.64
2019-06-15T00:55:07.059Z,19.57
2019-06-15T00:57:39.047Z,19.55
2019-06-15T01:00:11.490Z,19.53
2019-06-15T01:02:43.495Z,19.49
2019-06-15T01:05:15.627Z,19.45
2019-06-15T01:07:47.621Z,19.34
2019-06-15T01:10:19.615Z,19.36
2019-06-15T01:12:51.586Z,19.31
2019-06-15T01:15:23.630Z,19.22
2019-06-15T01:17:55.599Z,19.18
2019-06-15T01:20:27.582Z,19.21
2019-06-15T01:22:59.767Z,19.15
2019-06-15T01:25:31.745Z,19.15
2019-06-15T01:28:03.743Z,19.11
2019-06-15T01:30:35.727Z,19.11
2019-06-15T01:33:07.690Z,19.04
2019-06-15T01:35:39.730Z,19.06
2019-06-15T01:38:11.745Z,19.02
2019-06-15T01:40:43.691Z,18.95
2019-06-15T01:43:15.672Z,18.79
2019-06-15T01:45:47.636Z,18.75
2019-06-15T01:48:19.620Z,18.68
2019-06-15T01:50:51.626Z,18.77
2019-06-15T01:53:23.621Z,18.77
2019-06-15T01:55:55.607Z,18.69
2019-06-15T01:58:27.586Z,18.69
2019-06-15T02:00:59.541Z,18.66
2019-06-15T02:03:31.516Z,18.68
2019-06-15T02:06:03.566Z,18.68
2019-06-15T02:08:35.550Z,18.66
2019-06-15T02:11:07.545Z,18.58
2019-06-15T02:13:39.535Z,18.65
2019-06-15T02:16:11.508Z,18.65
2019-06-15T02:18:43.485Z,18.62
2019-06-15T02:21:15.546Z,18.66
2019-06-15T02:23:47.505Z,18.59
2019-06-15T02:26:19.449Z,18.53
2019-06-15T02:28:51.454Z,18.55
2019-06-15T02:31:23.412Z,18.52
2019-06-15T02:33:55.386Z,18.53
2019-06-15T02:36:27.310Z,18.54
2019-06-15T02:38:59.287Z,18.58
2019-06-15T02:41:31.255Z,18.60
2019-06-15T02:44:04.083Z,18.59
2019-06-15T02:46:36.020Z,18.56
2019-06-15T02:49:08.021Z,18.59
2019-06-15T02:51:39.995Z,18.46
2019-06-15T02:54:11.944Z,18.44
2019-06-15T02:56:43.920Z,18.46
2019-06-15T02:59:15.865Z,18.54
2019-06-15T03:01:47.836Z,18.54
2019-06-15T03:04:19.822Z,18.50
2019-06-15T03:06:51.846Z,18.57
2019-06-15T03:09:24.268Z,18.55
2019-06-15T03:11:56.262Z,18.54
2019-06-15T03:14:28.329Z,18.51
2019-06-15T03:17:00.304Z,18.46
2019-06-15T03:19:32.241Z,18.45
2019-06-15T03:22:06.492Z,18.36
2019-06-15T03:24:38.079Z,18.37
2019-06-15T03:27:10.077Z,18.33
2019-06-15T03:29:42.034Z,18.31
2019-06-15T03:32:14.039Z,18.29
2019-06-15T03:34:45.980Z,18.32
2019-06-15T03:37:17.981Z,18.18
2019-06-15T03:39:49.968Z,18.19
2019-06-15T03:42:21.926Z,18.22
2019-06-15T03:44:53.862Z,18.20
2019-06-15T03:47:25.854Z,18.18
2019-06-15T03:49:57.785Z,18.15
2019-06-15T03:52:29.758Z,18.17
2019-06-15T03:55:01.716Z,18.16
2019-06-15T03:57:33.658Z,18.11
2019-06-15T04:00:22.149Z,18.10
2019-06-15T04:02:54.122Z,18.05
2019-06-15T04:05:26.062Z,18.09
2019-06-15T04:07:58.048Z,18.10
2019-06-15T04:10:30.001Z,18.13
2019-06-15T04:13:01.996Z,18.21
2019-06-15T04:15:33.950Z,18.24
2019-06-15T04:18:05.951Z,18.31
2019-06-15T04:20:37.918Z,18.38
2019-06-15T04:23:10.013Z,18.46
2019-06-15T04:25:44.249Z,18.57
2019-06-15T04:28:15.850Z,18.69
2019-06-15T04:30:47.842Z,18.75
2019-06-15T04:33:19.801Z,18.83
2019-06-15T04:35:51.753Z,18.93
2019-06-15T04:38:23.761Z,19.00
2019-06-15T04:40:55.719Z,19.28
2019-06-15T04:43:27.742Z,19.27
2019-06-15T04:45:59.633Z,19.23
2019-06-15T04:48:31.612Z,19.33
2019-06-15T04:51:03.705Z,19.28
2019-06-15T04:53:35.682Z,19.25
2019-06-15T04:56:07.652Z,19.27
2019-06-15T04:58:39.625Z,19.28
2019-06-15T05:01:11.598Z,19.38
2019-06-15T05:03:43.576Z,19.42
2019-06-15T05:06:15.507Z,19.52
2019-06-15T05:08:47.508Z,19.50
2019-06-15T05:11:19.488Z,19.70
2019-06-15T05:13:51.447Z,19.80
2019-06-15T05:16:23.407Z,19.78
2019-06-15T05:18:55.362Z,19.79
2019-06-15T05:21:27.441Z,19.96
2019-06-15T05:23:59.419Z,20.22
2019-06-15T05:26:31.367Z,20.50
2019-06-15T05:29:03.642Z,20.78
2019-06-15T05:31:35.617Z,21.03
2019-06-15T05:34:07.597Z,21.14
2019-06-15T05:36:39.559Z,21.32
2019-06-15T05:39:11.517Z,21.45
2019-06-15T05:41:43.495Z,21.57
2019-06-15T05:44:15.436Z,21.63
2019-06-15T05:46:47.384Z,21.74
2019-06-15T05:49:19.335Z,21.65
2019-06-15T05:51:51.301Z,21.57
2019-06-15T05:54:23.279Z,21.49
2019-06-15T05:56:55.335Z,21.55
2019-06-15T05:59:27.300Z,21.53
2019-06-15T06:01:59.254Z,21.67
2019-06-15T06:04:31.415Z,22.27
2019-06-15T06:07:03.378Z,22.58
2019-06-15T06:09:35.327Z,23.10
2019-06-15T06:12:07.308Z,23.77
2019-06-15T06:14:39.236Z,24.40
2019-06-15T06:17:11.230Z,24.95
2019-06-15T06:19:43.199Z,25.15
2019-06-15T06:22:15.231Z,25.23
2019-06-15T06:24:47.172Z,26.01
2019-06-15T06:27:19.428Z,26.70
2019-06-15T06:29:51.420Z,26.93
2019-06-15T06:32:23.365Z,27.24
2019-06-15T06:34:55.295Z,27.55
2019-06-15T06:37:27.362Z,27.96
2019-06-15T06:39:59.334Z,28.30
2019-06-15T06:42:31.285Z,28.48
2019-06-15T06:45:05.271Z,28.67
2019-06-15T06:47:37.272Z,28.93
2019-06-15T06:50:09.847Z,29.12
2019-06-15T06:52:41.844Z,28.92
2019-06-15T06:55:13.789Z,29.19
2019-06-15T06:57:53.344Z,29.29
2019-06-15T07:00:19.834Z,29.56
2019-06-15T07:02:51.791Z,29.69
2019-06-15T07:05:23.753Z,29.62
2019-06-15T07:07:55.723Z,29.68
2019-06-15T07:10:27.685Z,29.42
2019-06-15T07:12:59.665Z,28.93
2019-06-15T07:15:31.605Z,28.49
2019-06-15T07:18:03.625Z,28.55
2019-06-15T07:20:35.580Z,28.54
2019-06-15T07:23:07.560Z,28.31
2019-06-15T07:25:39.534Z,28.41
2019-06-15T07:28:11.521Z,27.74
2019-06-15T07:30:43.492Z,28.05
2019-06-15T07:33:15.512Z,28.76
2019-06-15T07:35:47.566Z,29.21
2019-06-15T07:38:19.527Z,29.47
2019-06-15T07:40:51.482Z,29.86
2019-06-15T07:43:23.529Z,30.19
2019-06-15T07:45:55.586Z,30.01
2019-06-15T07:48:27.565Z,30.12
2019-06-15T07:50:59.542Z,30.37
2019-06-15T07:53:31.480Z,29.99
2019-06-15T07:56:03.494Z,29.66
2019-06-15T07:58:35.459Z,29.25
2019-06-15T08:01:07.481Z,28.74
2019-06-15T08:03:39.522Z,28.83
2019-06-15T08:06:11.528Z,28.44
2019-06-15T08:08:43.527Z,28.43
2019-06-15T08:11:15.493Z,28.65
2019-06-15T08:13:47.479Z,29.17
2019-06-15T08:16:19.450Z,29.37
2019-06-15T08:18:51.480Z,29.37
2019-06-15T08:21:23.465Z,29.41
2019-06-15T08:23:55.494Z,29.15
2019-06-15T08:26:27.479Z,29.23
2019-06-15T08:28:59.477Z,29.26
2019-06-15T08:31:31.567Z,29.51
2019-06-15T08:34:03.536Z,29.64
2019-06-15T08:36:35.486Z,29.86
2019-06-15T08:39:07.456Z,29.88
2019-06-15T08:41:39.742Z,29.93
2019-06-15T08:44:11.867Z,29.86
2019-06-15T08:46:43.871Z,29.64
2019-06-15T08:49:15.828Z,29.63
2019-06-15T08:51:47.839Z,29.55
2019-06-15T08:54:19.830Z,29.51
2019-06-15T08:56:51.791Z,29.74
2019-06-15T08:59:23.746Z,29.75
2019-06-15T09:01:55.726Z,29.51
2019-06-15T09:04:27.752Z,29.13
2019-06-15T09:06:59.747Z,28.94
2019-06-15T09:09:31.738Z,28.71
2019-06-15T09:12:03.738Z,28.53
2019-06-15T09:14:35.746Z,28.38
2019-06-15T09:17:07.830Z,28.27
2019-06-15T09:19:39.808Z,28.19
2019-06-15T09:22:11.803Z,28.27
2019-06-15T09:24:43.754Z,28.38
2019-06-15T09:27:15.752Z,28.49
2019-06-15T09:29:47.742Z,28.47
2019-06-15T09:32:19.745Z,28.46
2019-06-15T09:34:51.713Z,28.26
2019-06-15T09:37:23.768Z,28.00
2019-06-15T09:39:55.791Z,27.68
2019-06-15T09:42:27.769Z,27.27
2019-06-15T09:44:59.733Z,26.89
2019-06-15T09:47:31.762Z,27.07
2019-06-15T09:50:04.330Z,27.07
2019-06-15T09:52:36.327Z,27.30
2019-06-15T09:55:09.282Z,27.71
2019-06-15T09:57:41.347Z,27.92
2019-06-15T10:00:13.529Z,28.09
2019-06-15T10:02:45.553Z,28.22
2019-06-15T10:05:17.628Z,28.18
2019-06-15T10:07:49.625Z,28.02
2019-06-15T10:10:21.614Z,27.79
2019-06-15T10:12:53.667Z,27.47
2019-06-15T10:15:25.658Z,27.14
2019-06-15T10:17:57.613Z,27.41
2019-06-15T10:20:29.600Z,27.36
2019-06-15T10:23:01.623Z,27.51
2019-06-15T10:25:33.779Z,27.22
2019-06-15T10:28:05.775Z,27.08
2019-06-15T10:30:37.804Z,27.08
2019-06-15T10:33:09.738Z,27.25
2019-06-15T10:35:41.721Z,27.49
2019-06-15T10:38:13.709Z,27.49
2019-06-15T10:40:45.709Z,27.75
2019-06-15T10:43:17.800Z,27.85
2019-06-15T10:45:49.885Z,27.99
2019-06-15T10:48:21.854Z,28.03
2019-06-15T10:50:53.910Z,27.98
2019-06-15T10:53:25.891Z,27.81
2019-06-15T10:55:57.955Z,27.82
2019-06-15T10:58:29.994Z,27.90
2019-06-15T11:01:02.007Z,27.88
2019-06-15T11:03:34.017Z,27.74
2019-06-15T11:06:06.014Z,27.89
2019-06-15T11:08:38.015Z,27.66
2019-06-15T11:11:21.792Z,27.49
2019-06-15T11:13:54.174Z,27.17
2019-06-15T11:16:26.191Z,27.06
2019-06-15T11:18:58.132Z,26.56
2019-06-15T11:21:30.138Z,26.61
2019-06-15T11:24:02.106Z,26.70
2019-06-15T11:26:34.086Z,26.94
2019-06-15T11:29:06.068Z,27.18
2019-06-15T11:31:38.100Z,27.46
2019-06-15T11:34:10.079Z,27.46
2019-06-15T11:36:42.066Z,27.48
2019-06-15T11:39:14.057Z,27.55
2019-06-15T11:41:46.040Z,27.55
2019-06-15T11:44:18.041Z,27.35
2019-06-15T11:46:50.049Z,27.40
2019-06-15T11:49:22.018Z,27.62
2019-06-15T11:51:54.009Z,27.66
2019-06-15T11:54:26.024Z,27.67
2019-06-15T11:56:58.051Z,27.49
2019-06-15T11:59:30.089Z,27.61
2019-06-15T12:02:02.122Z,27.61
2019-06-15T12:04:34.112Z,27.69
2019-06-15T12:07:06.139Z,27.61
2019-06-15T12:09:38.118Z,27.37
2019-06-15T12:12:10.138Z,27.20
2019-06-15T12:14:42.144Z,27.23
2019-06-15T12:17:14.138Z,27.18
2019-06-15T12:19:46.104Z,26.97
2019-06-15T12:22:18.098Z,26.95
2019-06-15T12:24:50.116Z,27.02
2019-06-15T12:27:22.073Z,26.80
2019-06-15T12:29:54.098Z,26.73
2019-06-15T12:32:26.114Z,26.94
2019-06-15T12:34:58.094Z,26.94
2019-06-15T12:37:30.089Z,26.73
2019-06-15T12:40:02.077Z,26.85
2019-06-15T12:42:34.128Z,27.16
2019-06-15T12:45:06.351Z,27.19
2019-06-15T12:47:38.330Z,27.31
2019-06-15T12:50:10.593Z,27.23
2019-06-15T12:52:42.575Z,27.32
2019-06-15T12:55:14.797Z,27.45
2019-06-15T12:57:46.824Z,27.46
2019-06-15T13:00:24.527Z,27.39
2019-06-15T13:02:56.492Z,27.44
2019-06-15T13:05:28.539Z,27.31
2019-06-15T13:08:00.959Z,27.21
2019-06-15T13:10:40.071Z,27.22
2019-06-15T13:13:12.041Z,27.46
2019-06-15T13:15:44.043Z,27.48
2019-06-15T13:18:16.015Z,27.24
2019-06-15T13:20:48.013Z,27.03
2019-06-15T13:23:20.016Z,27.22
2019-06-15T13:25:52.015Z,27.22
2019-06-15T13:28:23.980Z,27.24
2019-06-15T13:30:56.024Z,27.33
2019-06-15T13:33:28.028Z,27.36
2019-06-15T13:36:00.028Z,27.38
2019-06-15T13:38:32.008Z,27.59
2019-06-15T13:41:04.041Z,27.45
2019-06-15T13:43:35.995Z,27.37
2019-06-15T13:46:08.040Z,27.28
2019-06-15T13:48:40.028Z,27.22
2019-06-15T13:51:12.045Z,27.29
2019-06-15T13:53:44.336Z,27.31
2019-06-15T13:56:16.322Z,27.23
2019-06-15T13:58:48.278Z,27.21
2019-06-15T14:01:33.207Z,27.19
2019-06-15T14:03:54.155Z,26.94
2019-06-15T14:06:26.155Z,26.99
2019-06-15T14:08:58.157Z,26.75
2019-06-15T14:11:30.162Z,26.64
2019-06-15T14:14:02.150Z,26.40
2019-06-15T14:16:34.260Z,26.57
2019-06-15T14:19:06.177Z,26.66
2019-06-15T14:21:38.241Z,26.78
2019-06-15T14:24:10.182Z,26.80
2019-06-15T14:26:42.202Z,26.86
2019-06-15T14:29:17.325Z,26.80
2019-06-15T14:31:50.393Z,26.66
2019-06-15T14:34:21.993Z,26.59
2019-06-15T14:36:53.999Z,26.72
2019-06-15T14:39:25.953Z,26.50
2019-06-15T14:41:57.916Z,26.28
2019-06-15T14:44:29.866Z,26.22
2019-06-15T14:47:01.887Z,26.05
2019-06-15T14:49:33.849Z,25.93
2019-06-15T14:52:05.889Z,25.98
2019-06-15T14:54:37.875Z,26.06
2019-06-15T14:57:09.932Z,26.00
2019-06-15T14:59:55.401Z,25.85
2019-06-15T15:02:17.535Z,25.69
2019-06-15T15:04:49.747Z,25.65
2019-06-15T15:07:21.746Z,25.59
2019-06-15T15:09:56.436Z,25.66
2019-06-15T15:12:27.647Z,25.57
2019-06-15T15:14:59.842Z,25.56
2019-06-15T15:17:31.860Z,25.67
2019-06-15T15:20:07.182Z,25.68
2019-06-15T15:22:38.832Z,25.68
2019-06-15T15:25:12.801Z,25.59
2019-06-15T15:27:46.763Z,25.80
2019-06-15T15:30:36.364Z,26.02
2019-06-15T15:33:08.544Z,26.06
2019-06-15T15:35:40.545Z,26.14
2019-06-15T15:38:12.525Z,26.17
2019-06-15T15:40:46.661Z,26.12
2019-06-15T15:43:18.396Z,26.22
2019-06-15T15:45:50.379Z,26.41
2019-06-15T15:48:22.387Z,26.41
2019-06-15T15:50:54.344Z,26.30
2019-06-15T15:53:26.540Z,26.27
2019-06-15T15:56:00.346Z,26.26
2019-06-15T15:58:32.382Z,26.23
2019-06-15T16:01:06.558Z,26.21
2019-06-15T16:03:38.263Z,26.21
2019-06-15T16:06:10.333Z,26.16
2019-06-15T16:08:42.351Z,25.94
2019-06-15T16:11:16.350Z,25.91
2019-06-15T16:13:48.296Z,25.81
2019-06-15T16:16:20.331Z,25.66
2019-06-15T16:18:52.341Z,25.56
2019-06-15T16:21:26.025Z,25.52
2019-06-15T16:23:58.530Z,25.52
2019-06-15T16:26:30.706Z,25.48
2019-06-15T16:29:02.722Z,25.35
2019-06-15T16:31:37.196Z,25.31
2019-06-15T16:34:08.634Z,25.23
2019-06-15T16:36:40.630Z,25.31
2019-06-15T16:39:12.622Z,25.29
2019-06-15T16:41:46.861Z,25.11
2019-06-15T16:44:18.532Z,24.96
2019-06-15T16:46:50.555Z,24.98
2019-06-15T16:49:22.538Z,24.96
2019-06-15T16:51:54.592Z,24.92
2019-06-15T16:54:27.070Z,24.84
2019-06-15T16:56:59.188Z,24.85
2019-06-15T16:59:31.168Z,24.76
2019-06-15T17:02:03.334Z,24.69
2019-06-15T17:04:36.406Z,24.62
2019-06-15T17:07:08.568Z,24.70
2019-06-15T17:09:40.564Z,24.60
2019-06-15T17:12:12.589Z,24.64
2019-06-15T17:14:44.583Z,24.63
2019-06-15T17:17:17.366Z,24.56
2019-06-15T17:19:49.504Z,24.46
2019-06-15T17:22:21.646Z,24.46
2019-06-15T17:24:53.588Z,24.49
2019-06-15T17:27:26.193Z,24.37
2019-06-15T17:29:58.364Z,24.37
2019-06-15T17:32:30.465Z,24.23
2019-06-15T17:35:02.495Z,24.24
2019-06-15T17:37:36.416Z,24.13
2019-06-15T17:40:09.213Z,24.08
2019-06-15T17:42:41.217Z,24.26
2019-06-15T17:45:16.004Z,24.11
2019-06-15T17:47:47.183Z,23.93
2019-06-15T17:50:23.264Z,23.89
2019-06-15T17:52:55.268Z,23.87
2019-06-15T17:55:27.243Z,23.82
2019-06-15T17:57:59.262Z,23.79
2019-06-15T18:00:49.364Z,23.78
2019-06-15T18:03:21.367Z,23.76
2019-06-15T18:05:53.335Z,23.64
2019-06-15T18:08:26.891Z,23.64
2019-06-15T18:10:58.984Z,23.57
2019-06-15T18:13:31.025Z,23.52
2019-06-15T18:16:02.997Z,23.46
2019-06-15T18:18:37.091Z,23.42
2019-06-15T18:21:08.984Z,23.41
2019-06-15T18:23:41.010Z,23.33
2019-06-15T18:26:12.959Z,23.30
2019-06-15T18:28:46.869Z,23.28
2019-06-15T18:31:18.895Z,23.22
2019-06-15T18:34:05.776Z,23.18
2019-06-15T18:36:26.598Z,23.14
2019-06-15T18:38:58.685Z,23.09
2019-06-15T18:41:30.706Z,23.04
2019-06-15T18:44:02.716Z,22.99
2019-06-15T18:46:36.760Z,22.92
2019-06-15T18:49:08.622Z,22.87
2019-06-15T18:51:40.628Z,22.87
2019-06-15T18:54:12.660Z,22.82
2019-06-15T18:56:45.986Z,22.76
2019-06-15T18:59:18.117Z,22.67
2019-06-15T19:01:50.081Z,22.57
2019-06-15T19:04:27.104Z,22.49
2019-06-15T19:06:56.240Z,22.40
2019-06-15T19:09:28.344Z,22.33
2019-06-15T19:12:00.305Z,22.27
2019-06-15T19:14:32.355Z,22.21
2019-06-15T19:17:06.063Z,22.15
2019-06-15T19:19:38.270Z,22.08
2019-06-15T19:22:10.241Z,22.03
2019-06-15T19:24:42.278Z,21.96
2019-06-15T19:27:16.143Z,21.89
2019-06-15T19:29:48.181Z,21.82
2019-06-15T19:32:20.210Z,21.76
2019-06-15T19:34:52.287Z,21.71
2019-06-15T19:37:26.074Z,21.67
2019-06-15T19:39:58.153Z,21.58
2019-06-15T19:42:30.154Z,21.54
2019-06-15T19:45:02.172Z,21.50
2019-06-15T19:47:37.711Z,21.45
2019-06-15T19:50:10.219Z,21.33
2019-06-15T19:52:42.215Z,21.25
2019-06-15T19:55:16.359Z,21.18
2019-06-15T19:57:48.105Z,21.05
2019-06-15T20:00:20.227Z,20.97
2019-06-15T20:02:52.223Z,20.92
2019-06-15T20:05:25.953Z,20.84
2019-06-15T20:07:58.131Z,20.77
2019-06-15T20:10:30.131Z,20.68
2019-06-15T20:13:02.146Z,20.61
2019-06-15T20:15:37.335Z,20.55
2019-06-15T20:18:08.060Z,20.49
2019-06-15T20:20:40.099Z,20.38
2019-06-15T20:23:12.089Z,20.37
2019-06-15T20:25:46.806Z,20.30
2019-06-15T20:28:18.000Z,20.23
2019-06-15T20:30:50.050Z,20.21
2019-06-15T20:33:22.074Z,20.21
2019-06-15T20:35:54.129Z,20.17
2019-06-15T20:38:26.911Z,20.14
2019-06-15T20:40:59.274Z,20.13
2019-06-15T20:43:31.245Z,20.08
2019-06-15T20:46:03.286Z,20.06
2019-06-15T20:48:36.306Z,20.03
2019-06-15T20:51:10.281Z,20.06
2019-06-15T20:53:42.419Z,20.01
2019-06-15T20:56:16.930Z,19.99
2019-06-15T20:58:48.369Z,19.99
2019-06-15T21:01:20.388Z,19.98
2019-06-15T21:03:52.427Z,20.00
2019-06-15T21:06:26.034Z,20.04
2019-06-15T21:08:58.115Z,20.05
2019-06-15T21:11:30.129Z,20.04
2019-06-15T21:14:02.242Z,20.05
2019-06-15T21:16:36.853Z,20.10
2019-06-15T21:19:08.504Z,20.11
2019-06-15T21:21:40.477Z,20.11
2019-06-15T21:24:12.475Z,20.05
2019-06-15T21:26:44.501Z,19.95
2019-06-15T21:29:16.798Z,19.89
2019-06-15T21:31:48.998Z,19.77
2019-06-15T21:34:20.994Z,19.73
2019-06-15T21:36:53.031Z,19.70
2019-06-15T21:39:26.579Z,19.65
2019-06-15T21:41:58.802Z,19.62
2019-06-15T21:44:30.894Z,19.58
2019-06-15T21:47:02.911Z,19.52
2019-06-15T21:49:35.872Z,19.48
2019-06-15T21:52:07.934Z,19.41
2019-06-15T21:54:39.937Z,19.42
2019-06-15T21:57:11.914Z,19.39
2019-06-15T21:59:43.913Z,19.43
2019-06-15T22:02:15.922Z,19.38
2019-06-15T22:04:49.022Z,19.28
2019-06-15T22:07:20.999Z,19.21
2019-06-15T22:09:52.984Z,19.19
2019-06-15T22:12:26.889Z,19.07
2019-06-15T22:14:58.900Z,19.05
2019-06-15T22:17:30.890Z,18.92
2019-06-15T22:20:02.903Z,18.86
2019-06-15T22:22:36.463Z,18.76
2019-06-15T22:25:08.604Z,18.80
2019-06-15T22:27:40.664Z,18.76
2019-06-15T22:30:12.851Z,18.80
2019-06-15T22:32:47.082Z,18.83
2019-06-15T22:35:18.776Z,18.85
2019-06-15T22:37:50.779Z,18.75
2019-06-15T22:40:22.826Z,18.53
2019-06-15T22:42:56.312Z,18.37
2019-06-15T22:45:28.401Z,18.28
2019-06-15T22:48:00.356Z,18.23
2019-06-15T22:50:32.379Z,18.23
2019-06-15T22:53:07.155Z,18.14
2019-06-15T22:55:38.301Z,18.18
2019-06-15T22:58:10.303Z,18.07
2019-06-15T23:00:42.296Z,17.93
2019-06-15T23:03:16.662Z,17.89
2019-06-15T23:05:48.182Z,17.89
2019-06-15T23:08:20.149Z,17.85
2019-06-15T23:10:52.197Z,17.78
2019-06-15T23:13:26.149Z,17.74
2019-06-15T23:15:58.058Z,17.72
2019-06-15T23:18:30.038Z,17.72
2019-06-15T23:21:02.077Z,17.72
2019-06-15T23:23:36.191Z,17.76
2019-06-15T23:26:07.950Z,17.75
2019-06-15T23:28:39.954Z,17.72
2019-06-15T23:31:11.921Z,17.51
2019-06-15T23:33:46.611Z,17.32
2019-06-15T23:36:23.059Z,17.13
2019-06-15T23:38:57.063Z,17.15
2019-06-15T23:41:29.070Z,17.25
2019-06-15T23:44:01.001Z,17.41
2019-06-15T23:46:32.988Z,17.36
2019-06-15T23:49:06.963Z,17.46
2019-06-15T23:51:38.830Z,17.41
2019-06-15T23:54:10.798Z,17.41
2019-06-15T23:56:42.824Z,17.43
2019-06-15T23:59:17.719Z,17.44
